createdAt,value
2023-01-17T00:01:55.460Z,4.87
2023-01-17T00:04:40.676Z,4.98
2023-01-17T00:07:29.669Z,4.87
2023-01-17T00:09:58.600Z,4.90
2023-01-17T00:12:27.159Z,4.85
2023-01-17T00:14:56.320Z,4.93
2023-01-17T00:17:24.415Z,4.94
2023-01-17T00:20:09.855Z,4.86
2023-01-17T00:22:55.683Z,4.88
2023-01-17T00:25:47.576Z,4.95
2023-01-17T00:28:14.584Z,4.85
2023-01-17T00:30:41.183Z,4.91
2023-01-17T00:33:07.760Z,4.85
2023-01-17T00:35:34.979Z,4.73
2023-01-17T00:38:12.474Z,4.75
2023-01-17T00:40:40.922Z,4.72
2023-01-17T00:43:27.059Z,4.76
2023-01-17T00:46:12.761Z,4.64
2023-01-17T00:48:58.168Z,4.51
2023-01-17T00:51:44.607Z,4.53
2023-01-17T00:54:29.770Z,4.57
2023-01-17T00:57:15.133Z,4.42
2023-01-17T01:00:00.389Z,4.35
2023-01-17T01:02:46.140Z,4.39
2023-01-17T01:05:32.872Z,4.29
2023-01-17T01:08:19.174Z,4.31
2023-01-17T01:11:05.931Z,4.37
2023-01-17T01:13:52.263Z,4.38
2023-01-17T01:16:38.018Z,4.39
2023-01-17T01:19:24.555Z,4.26
2023-01-17T01:22:09.674Z,4.18
2023-01-17T01:24:55.053Z,4.30
2023-01-17T01:27:40.405Z,4.35
2023-01-17T01:30:26.253Z,4.41
2023-01-17T01:33:11.615Z,4.40
2023-01-17T01:35:38.246Z,4.38
2023-01-17T01:38:04.813Z,4.34
2023-01-17T01:40:31.482Z,4.38
2023-01-17T01:42:59.965Z,4.23
2023-01-17T01:45:29.821Z,4.12
2023-01-17T01:48:04.231Z,4.22
2023-01-17T01:50:33.821Z,4.24
2023-01-17T01:53:03.427Z,4.07
2023-01-17T01:55:36.483Z,4.22
2023-01-17T01:58:10.665Z,4.07
2023-01-17T02:00:40.823Z,4.06
2023-01-17T02:03:13.084Z,4.21
2023-01-17T02:05:42.447Z,4.25
2023-01-17T02:08:13.218Z,4.14
2023-01-17T02:10:41.468Z,4.18
2023-01-17T02:13:09.592Z,4.32
2023-01-17T02:15:45.850Z,4.42
2023-01-17T02:18:43.865Z,4.40
2023-01-17T02:21:24.307Z,4.42
2023-01-17T02:24:09.772Z,4.46
2023-01-17T02:26:48.462Z,4.50
2023-01-17T02:29:43.240Z,4.51
2023-01-17T02:32:34.810Z,4.58
2023-01-17T02:35:13.647Z,4.54
2023-01-17T02:37:58.320Z,4.39
2023-01-17T02:40:34.605Z,4.47
2023-01-17T02:43:06.469Z,4.63
2023-01-17T02:45:33.060Z,4.51
2023-01-17T02:47:59.648Z,4.27
2023-01-17T02:50:50.442Z,4.39
2023-01-17T02:53:42.938Z,4.29
2023-01-17T02:56:34.311Z,4.15
2023-01-17T02:59:45.073Z,4.25
2023-01-17T03:02:28.272Z,4.25
2023-01-17T03:05:04.047Z,4.15
2023-01-17T03:07:32.038Z,4.08
2023-01-17T03:10:01.970Z,4.11
2023-01-17T03:12:32.334Z,4.14
2023-01-17T03:14:59.248Z,3.86
2023-01-17T03:17:32.447Z,3.86
2023-01-17T03:19:59.161Z,3.85
2023-01-17T03:22:25.789Z,3.76
2023-01-17T03:24:52.370Z,3.70
2023-01-17T03:27:18.953Z,3.70
2023-01-17T03:29:45.549Z,3.81
2023-01-17T03:32:12.180Z,3.76
2023-01-17T03:34:38.838Z,3.94
2023-01-17T03:37:05.558Z,4.02
2023-01-17T03:39:32.268Z,4.13
2023-01-17T03:41:58.832Z,4.07
2023-01-17T03:44:25.436Z,4.25
2023-01-17T03:46:52.030Z,4.41
2023-01-17T03:49:18.565Z,4.47
2023-01-17T03:51:45.152Z,4.62
2023-01-17T03:54:11.824Z,4.70
2023-01-17T03:56:38.392Z,4.65
2023-01-17T03:59:04.981Z,4.86
2023-01-17T04:01:31.777Z,4.69
2023-01-17T04:03:58.625Z,4.60
2023-01-17T04:06:25.309Z,4.66
2023-01-17T04:08:51.861Z,4.82
2023-01-17T04:11:18.429Z,4.85
2023-01-17T04:13:45.048Z,5.02
2023-01-17T04:18:45.009Z,4.77
2023-01-17T04:21:11.658Z,4.64
2023-01-17T04:23:38.470Z,4.76
2023-01-17T04:26:05.419Z,4.46
2023-01-17T04:28:32.137Z,4.29
2023-01-17T04:30:59.909Z,4.38
2023-01-17T04:33:26.829Z,4.40
2023-01-17T04:35:54.198Z,4.45
2023-01-17T04:38:21.667Z,4.29
2023-01-17T04:40:48.654Z,4.35
2023-01-17T04:43:16.483Z,4.44
2023-01-17T04:45:43.764Z,4.53
2023-01-17T04:48:12.569Z,4.66
2023-01-17T04:50:39.910Z,4.63
2023-01-17T04:53:07.594Z,4.71
2023-01-17T04:55:34.410Z,4.83
2023-01-17T04:58:01.091Z,4.75
2023-01-17T05:00:27.970Z,4.63
2023-01-17T05:02:54.601Z,4.74
2023-01-17T05:05:21.327Z,4.70
2023-01-17T05:07:55.526Z,4.87
2023-01-17T05:10:22.358Z,4.83
2023-01-17T05:12:56.392Z,4.72
2023-01-17T05:15:23.961Z,4.69
2023-01-17T05:17:52.331Z,4.58
2023-01-17T05:20:20.022Z,4.49
2023-01-17T05:22:55.355Z,4.46
2023-01-17T05:25:26.712Z,4.44
2023-01-17T05:27:53.703Z,4.48
2023-01-17T05:30:21.082Z,4.44
2023-01-17T05:32:52.607Z,4.43
2023-01-17T05:35:21.964Z,4.35
2023-01-17T05:37:50.330Z,4.33
2023-01-17T05:40:21.348Z,4.25
2023-01-17T05:42:49.943Z,4.28
2023-01-17T05:45:18.072Z,4.23
2023-01-17T05:47:45.604Z,4.34
2023-01-17T05:50:14.274Z,4.25
2023-01-17T05:52:41.307Z,4.28
2023-01-17T05:55:08.732Z,4.27
2023-01-17T05:57:35.352Z,4.28
2023-01-17T06:00:02.127Z,4.46
2023-01-17T06:02:32.120Z,4.33
2023-01-17T06:04:58.791Z,4.44
2023-01-17T06:07:25.409Z,4.53
2023-01-17T06:09:52.231Z,4.63
2023-01-17T06:12:19.247Z,4.66
2023-01-17T06:14:46.671Z,4.73
2023-01-17T06:17:13.263Z,4.65
2023-01-17T06:19:39.839Z,4.76
2023-01-17T06:22:06.831Z,4.97
2023-01-17T06:24:33.886Z,4.99
2023-01-17T06:27:00.796Z,4.91
2023-01-17T06:29:27.459Z,4.87
2023-01-17T06:31:54.255Z,4.79
2023-01-17T06:34:20.948Z,4.72
2023-01-17T06:36:47.545Z,4.73
2023-01-17T06:39:15.155Z,4.68
2023-01-17T06:41:42.927Z,4.71
2023-01-17T06:44:10.088Z,4.68
2023-01-17T06:46:36.773Z,4.76
2023-01-17T06:49:03.485Z,4.73
2023-01-17T06:51:30.167Z,4.84
2023-01-17T06:53:56.731Z,4.83
2023-01-17T06:56:23.440Z,4.78
2023-01-17T06:58:51.330Z,4.64
2023-01-17T07:01:18.891Z,4.63
2023-01-17T07:03:45.508Z,4.37
2023-01-17T07:06:12.314Z,4.82
2023-01-17T07:08:38.931Z,4.88
2023-01-17T07:11:10.722Z,4.81
2023-01-17T07:13:38.279Z,4.72
2023-01-17T07:16:06.584Z,4.73
2023-01-17T07:18:34.057Z,4.72
2023-01-17T07:21:01.066Z,4.74
2023-01-17T07:23:27.740Z,4.91
2023-01-17T07:25:56.627Z,4.79
2023-01-17T07:28:24.712Z,5.03
2023-01-17T07:30:51.894Z,4.98
2023-01-17T07:33:19.046Z,4.88
2023-01-17T07:35:46.260Z,4.86
2023-01-17T07:38:18.771Z,4.79
2023-01-17T07:40:46.467Z,4.75
2023-01-17T07:43:14.065Z,4.72
2023-01-17T07:45:50.691Z,4.72
2023-01-17T07:48:23.889Z,4.69
2023-01-17T07:50:57.568Z,4.63
2023-01-17T07:53:26.281Z,4.69
2023-01-17T07:55:53.081Z,4.69
2023-01-17T07:58:20.201Z,4.71
2023-01-17T08:00:46.952Z,4.61
2023-01-17T08:03:17.190Z,4.57
2023-01-17T08:05:53.497Z,4.52
2023-01-17T08:08:20.107Z,4.67
2023-01-17T08:10:47.230Z,4.80
2023-01-17T08:13:13.809Z,4.73
2023-01-17T08:15:40.554Z,4.82
2023-01-17T08:18:07.112Z,4.83
2023-01-17T08:20:33.725Z,4.89
2023-01-17T08:23:00.311Z,4.89
2023-01-17T08:25:27.370Z,5.04
2023-01-17T08:27:57.408Z,4.82
2023-01-17T08:30:24.351Z,4.81
2023-01-17T08:32:51.038Z,4.92
2023-01-17T08:35:19.800Z,5.16
2023-01-17T08:37:47.674Z,5.21
2023-01-17T08:40:18.833Z,5.39
2023-01-17T08:42:53.968Z,5.34
2023-01-17T08:45:20.589Z,5.53
2023-01-17T08:47:47.193Z,5.47
2023-01-17T08:50:13.824Z,5.48
2023-01-17T08:52:40.396Z,5.54
2023-01-17T08:55:10.019Z,5.59
2023-01-17T08:57:36.720Z,5.53
2023-01-17T09:00:03.718Z,5.47
2023-01-17T09:02:31.869Z,5.51
2023-01-17T09:05:00.387Z,5.54
2023-01-17T09:07:27.071Z,5.76
2023-01-17T09:09:53.891Z,5.79
2023-01-17T09:12:22.144Z,5.77
2023-01-17T09:14:49.094Z,5.81
2023-01-17T09:17:15.977Z,5.66
2023-01-17T09:19:47.245Z,5.70
2023-01-17T09:22:14.078Z,5.85
2023-01-17T09:24:40.723Z,5.85
2023-01-17T09:27:07.408Z,5.99
2023-01-17T09:29:34.106Z,5.90
2023-01-17T09:32:00.967Z,5.97
2023-01-17T09:34:27.969Z,5.88
2023-01-17T09:36:56.894Z,6.05
2023-01-17T09:39:23.622Z,5.95
2023-01-17T09:42:20.737Z,5.87
2023-01-17T09:44:52.354Z,5.83
2023-01-17T09:47:34.577Z,5.79
2023-01-17T09:50:32.556Z,5.90
2023-01-17T09:53:13.615Z,5.92
2023-01-17T09:55:49.030Z,6.02
2023-01-17T09:58:40.655Z,6.06
2023-01-17T10:01:07.456Z,6.04
2023-01-17T10:03:43.616Z,6.31
2023-01-17T10:06:22.152Z,6.46
2023-01-17T10:09:08.025Z,6.35
2023-01-17T10:11:46.004Z,6.62
2023-01-17T10:14:51.620Z,6.41
2023-01-17T10:17:36.267Z,6.79
2023-01-17T10:20:41.123Z,6.51
2023-01-17T10:23:31.288Z,6.90
2023-01-17T10:26:05.364Z,6.86
2023-01-17T10:28:46.698Z,6.92
2023-01-17T10:31:22.410Z,6.87
2023-01-17T10:33:54.886Z,6.75
2023-01-17T10:36:26.985Z,7.00
2023-01-17T10:38:57.535Z,7.01
2023-01-17T10:41:35.470Z,6.88
2023-01-17T10:44:39.441Z,6.80
2023-01-17T10:47:11.760Z,6.54
2023-01-17T10:49:43.498Z,6.61
2023-01-17T10:52:25.179Z,6.43
2023-01-17T10:55:12.048Z,6.65
2023-01-17T10:57:41.277Z,6.58
2023-01-17T11:00:44.104Z,6.68
2023-01-17T11:03:16.293Z,6.64
2023-01-17T11:05:43.552Z,6.71
2023-01-17T11:08:11.832Z,6.64
2023-01-17T11:10:49.045Z,6.66
2023-01-17T11:13:30.656Z,6.45
2023-01-17T11:16:07.103Z,6.43
2023-01-17T11:18:39.147Z,6.58
2023-01-17T11:21:13.295Z,6.61
2023-01-17T11:23:42.747Z,6.49
2023-01-17T11:26:20.036Z,6.57
2023-01-17T11:28:46.965Z,6.74
2023-01-17T11:31:16.448Z,6.61
2023-01-17T11:33:49.046Z,6.49
2023-01-17T11:36:17.100Z,6.53
2023-01-17T11:39:04.227Z,6.39
2023-01-17T11:41:41.482Z,6.55
2023-01-17T11:44:26.782Z,6.82
2023-01-17T11:47:11.541Z,6.95
2023-01-17T11:49:39.625Z,6.88
2023-01-17T11:52:11.370Z,6.91
2023-01-17T11:54:40.407Z,7.00
2023-01-17T11:57:20.100Z,6.79
2023-01-17T11:59:47.638Z,6.76
2023-01-17T12:02:49.906Z,6.82
2023-01-17T12:05:34.891Z,6.99
2023-01-17T12:08:13.852Z,7.15
2023-01-17T12:11:13.681Z,6.89
2023-01-17T12:14:00.403Z,6.96
2023-01-17T12:16:35.930Z,7.07
2023-01-17T12:19:27.261Z,6.96
2023-01-17T12:22:07.538Z,7.07
2023-01-17T12:24:52.707Z,7.10
2023-01-17T12:27:38.091Z,6.76
2023-01-17T12:30:30.733Z,6.80
2023-01-17T12:33:21.987Z,6.82
2023-01-17T12:35:52.759Z,6.96
2023-01-17T12:38:39.793Z,6.93
2023-01-17T12:41:20.547Z,6.92
2023-01-17T12:43:47.652Z,6.92
2023-01-17T12:46:31.819Z,6.85
2023-01-17T12:49:08.495Z,6.97
2023-01-17T12:51:39.106Z,6.89
2023-01-17T12:54:18.177Z,6.99
2023-01-17T12:56:48.037Z,6.98
2023-01-17T12:59:17.762Z,6.79
2023-01-17T13:01:57.323Z,7.07
2023-01-17T13:04:33.087Z,7.04
2023-01-17T13:07:00.008Z,6.93
2023-01-17T13:09:37.884Z,7.07
2023-01-17T13:12:08.546Z,7.22
2023-01-17T13:14:35.828Z,7.14
2023-01-17T13:17:31.539Z,7.15
2023-01-17T13:20:19.910Z,7.08
2023-01-17T13:22:47.330Z,6.91
2023-01-17T13:25:37.809Z,6.81
2023-01-17T13:28:14.439Z,6.96
2023-01-17T13:31:10.288Z,7.05
2023-01-17T13:34:02.913Z,6.80
2023-01-17T13:37:01.448Z,6.75
2023-01-17T13:40:02.021Z,6.89
2023-01-17T13:42:55.389Z,6.82
2023-01-17T13:45:26.163Z,6.78
2023-01-17T13:47:53.931Z,6.98
2023-01-17T13:50:38.605Z,7.05
2023-01-17T13:53:26.983Z,6.96
2023-01-17T13:55:59.395Z,6.83
2023-01-17T13:58:30.155Z,6.68
2023-01-17T14:00:56.892Z,6.78
2023-01-17T14:03:54.279Z,6.80
2023-01-17T14:06:33.117Z,6.84
2023-01-17T14:09:11.810Z,6.71
2023-01-17T14:12:08.864Z,6.81
2023-01-17T14:14:41.641Z,6.71
2023-01-17T14:17:48.119Z,6.82
2023-01-17T14:20:16.782Z,6.87
2023-01-17T14:22:55.907Z,6.83
2023-01-17T14:25:27.942Z,6.76
2023-01-17T14:28:00.353Z,6.82
2023-01-17T14:30:34.260Z,6.95
2023-01-17T14:33:01.128Z,6.96
2023-01-17T14:35:36.870Z,6.91
2023-01-17T14:38:16.026Z,6.95
2023-01-17T14:40:52.355Z,6.81
2023-01-17T14:43:21.753Z,6.69
2023-01-17T14:45:48.734Z,6.60
2023-01-17T14:48:21.576Z,6.60
2023-01-17T14:50:54.150Z,6.49
2023-01-17T14:53:28.668Z,6.39
2023-01-17T14:56:16.766Z,6.63
2023-01-17T14:58:46.462Z,6.69
2023-01-17T15:01:15.991Z,6.65
2023-01-17T15:03:48.879Z,6.72
2023-01-17T15:06:40.349Z,6.66
2023-01-17T15:09:12.340Z,6.73
2023-01-17T15:11:39.373Z,6.60
2023-01-17T15:14:06.902Z,6.34
2023-01-17T15:16:36.859Z,6.40
2023-01-17T15:19:11.640Z,6.38
2023-01-17T15:21:42.569Z,6.46
2023-01-17T15:24:18.910Z,6.54
2023-01-17T15:26:45.925Z,6.51
2023-01-17T15:29:19.943Z,6.53
2023-01-17T15:31:50.475Z,6.44
2023-01-17T15:34:30.369Z,6.50
2023-01-17T15:37:00.184Z,6.53
2023-01-17T15:39:32.501Z,6.38
2023-01-17T15:42:02.472Z,6.37
2023-01-17T15:44:48.152Z,6.24
2023-01-17T15:47:28.108Z,6.41
2023-01-17T15:49:55.096Z,6.22
2023-01-17T15:52:21.815Z,6.34
2023-01-17T15:54:52.684Z,6.16
2023-01-17T15:57:36.911Z,6.22
2023-01-17T16:00:20.322Z,6.21
2023-01-17T16:02:58.675Z,6.38
2023-01-17T16:05:27.465Z,6.37
2023-01-17T16:08:17.898Z,6.41
2023-01-17T16:10:44.832Z,6.35
2023-01-17T16:13:13.525Z,6.20
2023-01-17T16:15:42.875Z,6.37
2023-01-17T16:18:15.392Z,6.31
2023-01-17T16:20:53.785Z,6.40
2023-01-17T16:23:20.603Z,6.38
2023-01-17T16:25:48.200Z,6.35
2023-01-17T16:28:14.890Z,6.44
2023-01-17T16:30:41.831Z,6.23
2023-01-17T16:33:11.632Z,6.12
2023-01-17T16:35:39.968Z,6.15
2023-01-17T16:38:11.071Z,6.47
2023-01-17T16:40:44.325Z,6.44
2023-01-17T16:43:13.143Z,6.36
2023-01-17T16:45:45.839Z,6.17
2023-01-17T16:48:13.055Z,6.16
2023-01-17T16:50:53.231Z,6.05
2023-01-17T16:53:24.686Z,6.08
2023-01-17T16:55:55.572Z,6.18
2023-01-17T16:58:23.426Z,6.11
2023-01-17T17:00:50.317Z,6.06
2023-01-17T17:03:19.200Z,6.06
2023-01-17T17:05:55.249Z,6.09
2023-01-17T17:08:22.024Z,6.05
2023-01-17T17:10:48.671Z,6.14
2023-01-17T17:13:15.587Z,6.15
2023-01-17T17:15:46.254Z,6.21
2023-01-17T17:18:15.537Z,6.16
2023-01-17T17:20:43.322Z,6.04
2023-01-17T17:23:10.457Z,6.10
2023-01-17T17:25:38.219Z,6.21
2023-01-17T17:28:06.005Z,6.00
2023-01-17T17:30:33.535Z,5.82
2023-01-17T17:33:00.533Z,5.81
2023-01-17T17:35:27.132Z,5.77
2023-01-17T17:37:54.399Z,5.72
2023-01-17T17:40:21.830Z,5.65
2023-01-17T17:42:48.800Z,5.59
2023-01-17T17:45:15.767Z,5.58
2023-01-17T17:47:42.541Z,5.68
2023-01-17T17:50:09.611Z,5.67
2023-01-17T17:52:36.556Z,5.66
2023-01-17T17:55:03.539Z,5.66
2023-01-17T17:57:30.191Z,5.66
2023-01-17T17:59:59.471Z,5.62
2023-01-17T18:02:26.045Z,5.54
2023-01-17T18:04:52.761Z,5.54
2023-01-17T18:07:20.058Z,5.48
2023-01-17T18:09:47.167Z,5.51
2023-01-17T18:12:13.833Z,5.44
2023-01-17T18:14:40.675Z,5.41
2023-01-17T18:17:07.563Z,5.34
2023-01-17T18:19:34.326Z,5.36
2023-01-17T18:22:03.347Z,5.41
2023-01-17T18:24:30.269Z,5.38
2023-01-17T18:26:57.957Z,5.41
2023-01-17T18:29:26.827Z,5.51
2023-01-17T18:31:54.734Z,5.40
2023-01-17T18:34:26.903Z,5.46
2023-01-17T18:36:54.132Z,5.58
2023-01-17T18:39:26.645Z,5.68
2023-01-17T18:41:54.524Z,5.61
2023-01-17T18:44:22.473Z,5.54
2023-01-17T18:46:54.266Z,5.41
2023-01-17T18:49:21.133Z,5.42
2023-01-17T18:51:51.883Z,5.55
2023-01-17T18:54:20.304Z,5.42
2023-01-17T18:56:48.030Z,5.44
2023-01-17T18:59:21.436Z,5.35
2023-01-17T19:01:48.301Z,5.36
2023-01-17T19:04:17.176Z,5.31
2023-01-17T19:06:47.004Z,5.43
2023-01-17T19:09:15.465Z,5.45
2023-01-17T19:11:46.150Z,5.51
2023-01-17T19:14:13.225Z,5.53
2023-01-17T19:16:41.464Z,5.58
2023-01-17T19:19:11.434Z,5.51
2023-01-17T19:21:38.389Z,5.61
2023-01-17T19:24:06.147Z,5.51
2023-01-17T19:26:33.234Z,5.50
2023-01-17T19:29:00.235Z,5.58
2023-01-17T19:31:29.285Z,5.51
2023-01-17T19:33:57.980Z,5.55
2023-01-17T19:36:27.800Z,5.43
2023-01-17T19:39:04.489Z,5.46
2023-01-17T19:41:38.277Z,5.60
2023-01-17T19:44:08.234Z,5.54
2023-01-17T19:46:36.316Z,5.50
2023-01-17T19:49:07.114Z,5.61
2023-01-17T19:51:34.360Z,5.42
2023-01-17T19:54:01.774Z,5.42
2023-01-17T19:56:29.817Z,5.43
2023-01-17T19:59:01.790Z,5.39
2023-01-17T20:01:31.617Z,5.34
2023-01-17T20:03:59.239Z,5.29
2023-01-17T20:06:28.746Z,5.31
2023-01-17T20:08:56.517Z,5.27
2023-01-17T20:11:25.051Z,5.18
2023-01-17T20:13:55.009Z,5.16
2023-01-17T20:16:23.696Z,5.22
2023-01-17T20:18:51.002Z,5.16
2023-01-17T20:21:21.106Z,5.19
2023-01-17T20:23:49.978Z,5.30
2023-01-17T20:26:29.603Z,5.31
2023-01-17T20:28:56.483Z,5.27
2023-01-17T20:31:25.265Z,5.21
2023-01-17T20:33:56.134Z,5.26
2023-01-17T20:36:28.915Z,5.25
2023-01-17T20:38:57.045Z,5.30
2023-01-17T20:41:28.712Z,5.18
2023-01-17T20:43:57.629Z,5.32
2023-01-17T20:46:31.222Z,5.36
2023-01-17T20:48:58.316Z,5.33
2023-01-17T20:51:26.975Z,5.19
2023-01-17T20:53:59.796Z,5.11
2023-01-17T20:56:27.607Z,5.29
2023-01-17T20:58:55.110Z,5.23
2023-01-17T21:01:23.062Z,5.09
2023-01-17T21:03:53.093Z,5.00
2023-01-17T21:06:22.118Z,5.08
2023-01-17T21:08:49.249Z,5.48
2023-01-17T21:11:18.652Z,5.58
2023-01-17T21:13:45.669Z,5.53
2023-01-17T21:16:14.261Z,5.53
2023-01-17T21:18:41.091Z,5.43
2023-01-17T21:21:14.481Z,5.18
2023-01-17T21:23:42.642Z,5.37
2023-01-17T21:26:15.273Z,5.57
2023-01-17T21:28:44.467Z,5.63
2023-01-17T21:31:31.111Z,5.65
2023-01-17T21:34:00.968Z,5.45
2023-01-17T21:36:31.035Z,5.53
2023-01-17T21:38:59.127Z,5.57
2023-01-17T21:41:28.682Z,5.40
2023-01-17T21:43:57.749Z,5.38
2023-01-17T21:46:25.464Z,5.36
2023-01-17T21:48:52.440Z,5.27
2023-01-17T21:51:21.630Z,5.42
2023-01-17T21:53:48.529Z,5.25
2023-01-17T21:56:34.054Z,5.32
2023-01-17T21:59:00.837Z,5.23
2023-01-17T22:01:30.308Z,5.31
2023-01-17T22:04:02.919Z,5.39
2023-01-17T22:06:32.088Z,5.50
2023-01-17T22:08:59.217Z,5.82
2023-01-17T22:11:27.351Z,5.81
2023-01-17T22:13:53.956Z,5.65
2023-01-17T22:16:25.897Z,5.46
2023-01-17T22:18:52.876Z,5.64
2023-01-17T22:21:28.213Z,5.56
2023-01-17T22:23:58.258Z,5.46
2023-01-17T22:26:31.208Z,5.36
2023-01-17T22:29:02.283Z,5.39
2023-01-17T22:31:29.600Z,5.39
2023-01-17T22:33:58.948Z,5.30
2023-01-17T22:36:26.488Z,5.35
2023-01-17T22:38:53.328Z,5.13
2023-01-17T22:41:25.711Z,5.18
2023-01-17T22:43:54.416Z,5.25
2023-01-17T22:46:24.850Z,5.26
2023-01-17T22:48:53.054Z,5.13
2023-01-17T22:51:20.953Z,5.20
2023-01-17T22:53:56.558Z,5.08
2023-01-17T22:56:26.571Z,5.19
2023-01-17T22:58:53.648Z,5.12
2023-01-17T23:01:23.862Z,5.09
2023-01-17T23:03:56.321Z,5.09
2023-01-17T23:06:27.204Z,5.00
2023-01-17T23:08:57.821Z,5.03
2023-01-17T23:11:40.711Z,5.22
2023-01-17T23:14:24.053Z,5.03
2023-01-17T23:17:10.507Z,5.18
2023-01-17T23:19:47.786Z,5.05
2023-01-17T23:22:19.600Z,5.07
2023-01-17T23:24:52.558Z,4.95
2023-01-17T23:27:45.614Z,5.11
2023-01-17T23:30:12.401Z,4.94
2023-01-17T23:32:43.139Z,5.14
2023-01-17T23:35:10.049Z,5.06
2023-01-17T23:37:55.203Z,5.11
2023-01-17T23:40:22.399Z,4.96
2023-01-17T23:43:07.666Z,4.66
2023-01-17T23:45:37.968Z,4.94
2023-01-17T23:48:09.369Z,4.97
2023-01-17T23:50:41.192Z,4.90
2023-01-17T23:53:08.627Z,5.01
2023-01-17T23:55:37.450Z,5.20
2023-01-17T23:58:09.483Z,4.97
